createdAt,value
2023-02-04T00:02:49.553Z,100335.22
2023-02-04T00:06:51.466Z,100330.97
2023-02-04T00:10:53.218Z,100348.06
2023-02-04T00:14:54.993Z,100374.34
2023-02-04T00:18:56.827Z,100371.53
2023-02-04T00:22:58.664Z,100361.47
2023-02-04T00:27:00.608Z,100372.88
2023-02-04T00:31:02.616Z,100413.94
2023-02-04T00:35:04.831Z,100438.09
2023-02-04T00:39:06.591Z,100437.28
2023-02-04T00:43:08.513Z,100461.59
2023-02-04T00:47:10.307Z,100480.44
2023-02-04T00:51:12.157Z,100485.97
2023-02-04T00:55:15.752Z,100502.78
2023-02-04T00:59:17.507Z,100507.31
2023-02-04T01:03:19.411Z,100530.50
2023-02-04T01:07:21.244Z,100554.31
2023-02-04T01:11:23.159Z,100568.22
2023-02-04T01:15:24.954Z,100556.66
2023-02-04T01:19:26.776Z,100570.25
2023-02-04T01:23:28.565Z,100589.16
2023-02-04T01:27:30.465Z,100591.13
2023-02-04T01:31:34.040Z,100607.97
2023-02-04T01:35:35.927Z,100617.72
2023-02-04T01:39:37.773Z,100628.81
2023-02-04T01:43:39.753Z,100648.22
2023-02-04T01:47:41.626Z,100655.69
2023-02-04T01:51:43.515Z,100674.53
2023-02-04T01:55:45.338Z,100692.69
2023-02-04T01:59:47.677Z,100699.91
2023-02-04T02:03:49.449Z,100734.97
2023-02-04T02:07:53.337Z,100720.75
2023-02-04T02:11:55.091Z,100729.50
2023-02-04T02:15:56.980Z,100759.44
2023-02-04T02:19:59.054Z,100757.41
2023-02-04T02:24:03.929Z,100773.00
2023-02-04T02:28:19.363Z,100795.28
2023-02-04T02:32:21.168Z,100805.97
2023-02-04T02:47:34.442Z,100835.16
2023-02-04T02:51:36.262Z,100863.97
2023-02-04T02:55:38.060Z,100865.31
2023-02-04T02:59:39.836Z,100883.84
2023-02-04T03:03:59.944Z,100893.78
2023-02-04T03:08:01.760Z,100913.38
2023-02-04T03:12:06.654Z,100921.38
2023-02-04T03:16:08.561Z,100935.66
2023-02-04T03:20:10.941Z,100940.97
2023-02-04T03:24:12.775Z,100945.69
2023-02-04T03:28:14.774Z,100958.38
2023-02-04T03:32:16.723Z,100975.06
2023-02-04T03:36:18.626Z,100986.94
2023-02-04T03:40:20.509Z,101003.38
2023-02-04T03:44:26.900Z,101016.28
2023-02-04T03:48:28.757Z,101031.09
2023-02-04T03:52:38.167Z,101051.22
2023-02-04T03:56:40.041Z,101085.78
2023-02-04T04:00:41.815Z,101107.94
2023-02-04T04:04:43.667Z,101109.56
2023-02-04T04:08:45.430Z,101139.25
2023-02-04T04:12:47.327Z,101154.72
2023-02-04T04:16:49.154Z,101153.34
2023-02-04T04:20:51.119Z,101180.13
2023-02-04T04:24:52.993Z,101182.31
2023-02-04T04:28:54.901Z,101190.25
2023-02-04T04:32:56.708Z,101196.19
2023-02-04T04:36:58.506Z,101204.28
2023-02-04T04:41:00.445Z,101210.09
2023-02-04T04:45:03.026Z,101229.53
2023-02-04T04:49:05.123Z,101239.56
2023-02-04T04:53:11.115Z,101247.13
2023-02-04T04:57:13.022Z,101261.13
2023-02-04T05:01:14.969Z,101269.94
2023-02-04T05:05:17.007Z,101279.66
2023-02-04T05:09:18.800Z,101295.50
2023-02-04T05:13:20.545Z,101294.66
2023-02-04T05:17:22.350Z,101304.28
2023-02-04T05:21:24.315Z,101311.97
2023-02-04T05:25:26.354Z,101313.56
2023-02-04T05:29:30.493Z,101329.38
2023-02-04T05:33:32.436Z,101330.69
2023-02-04T05:37:36.604Z,101347.91
2023-02-04T05:41:39.698Z,101350.09
2023-02-04T05:45:41.948Z,101363.66
2023-02-04T05:49:43.954Z,101366.63
2023-02-04T05:53:45.780Z,101366.97
2023-02-04T05:57:47.630Z,101388.88
2023-02-04T06:01:49.723Z,101413.38
2023-02-04T06:05:51.482Z,101428.53
2023-02-04T06:09:53.273Z,101431.44
2023-02-04T06:13:55.650Z,101436.44
2023-02-04T06:17:58.785Z,101446.41
2023-02-04T06:22:00.788Z,101460.56
2023-02-04T06:26:03.101Z,101475.31
2023-02-04T06:30:05.493Z,101483.84
2023-02-04T06:34:10.300Z,101482.31
2023-02-04T06:38:13.376Z,101495.44
2023-02-04T06:42:17.781Z,101507.16
2023-02-04T06:46:19.627Z,101518.53
2023-02-04T06:50:21.580Z,101531.72
2023-02-04T06:54:25.655Z,101541.38
2023-02-04T06:58:27.593Z,101541.94
2023-02-04T07:02:35.326Z,101556.81
2023-02-04T07:06:37.298Z,101567.88
2023-02-04T07:10:39.230Z,101573.13
2023-02-04T07:14:41.093Z,101577.50
2023-02-04T07:18:43.043Z,101582.66
2023-02-04T07:22:45.224Z,101586.91
2023-02-04T07:26:47.457Z,101585.09
2023-02-04T07:30:50.113Z,101580.34
2023-02-04T07:34:55.072Z,101585.44
2023-02-04T07:38:59.841Z,101590.88
2023-02-04T13:00:07.110Z,101872.94
2023-02-04T15:02:30.878Z,101898.78
2023-02-04T15:06:32.887Z,101888.56
2023-02-04T15:10:34.949Z,101899.44
2023-02-04T15:14:37.303Z,101911.69
2023-02-04T15:18:39.387Z,101887.91
2023-02-04T15:22:41.192Z,101890.19
2023-02-04T15:37:02.737Z,101895.69
2023-02-04T15:41:13.557Z,101916.63
2023-02-04T15:45:34.418Z,101923.75
2023-02-04T15:49:45.603Z,101921.72
2023-02-04T15:54:11.660Z,101916.94
2023-02-04T16:02:35.131Z,101933.84
2023-02-04T16:06:37.380Z,101947.19
2023-02-04T16:10:39.473Z,101941.28
2023-02-04T16:14:47.589Z,101942.91
2023-02-04T16:18:50.187Z,101957.84
2023-02-04T16:23:07.369Z,101949.91
2023-02-04T16:27:09.554Z,101952.91
2023-02-04T16:31:12.411Z,101962.28
2023-02-04T16:35:14.822Z,101958.59
2023-02-04T16:39:17.124Z,101969.06
2023-02-04T16:43:22.497Z,101974.53
2023-02-04T16:47:24.361Z,101978.00
2023-02-04T16:51:37.186Z,101978.22
2023-02-04T16:55:44.363Z,101983.16
2023-02-04T17:00:45.923Z,101991.34
2023-02-04T17:04:48.986Z,102007.06
2023-02-04T17:09:01.754Z,101998.50
2023-02-04T17:13:03.725Z,102004.69
2023-02-04T17:17:09.172Z,102006.50
2023-02-04T17:21:11.353Z,102005.91
2023-02-04T17:25:13.446Z,102012.72
2023-02-04T17:29:19.262Z,102008.81
2023-02-04T17:33:21.379Z,102020.94
2023-02-04T17:37:26.180Z,102027.19
2023-02-04T17:41:31.047Z,102021.56
2023-02-04T17:45:33.750Z,102019.81
2023-02-04T17:49:37.842Z,102018.41
2023-02-04T17:53:41.828Z,102018.75
2023-02-04T17:57:44.989Z,102016.97
2023-02-04T18:01:47.233Z,102023.63
2023-02-04T18:05:54.651Z,102016.97
2023-02-04T18:10:17.223Z,102014.63
2023-02-04T18:14:30.383Z,102020.72
2023-02-04T18:18:39.166Z,102034.41
2023-02-04T18:22:41.078Z,102031.09
2023-02-04T18:26:51.648Z,102039.84
2023-02-04T18:30:54.652Z,102029.25
2023-02-04T18:35:04.052Z,102036.22
2023-02-04T18:39:28.433Z,102027.50
2023-02-04T18:43:36.123Z,102029.00
2023-02-04T18:47:54.087Z,102010.00
2023-02-04T18:52:11.125Z,102022.91
2023-02-04T18:56:13.573Z,102015.53
2023-02-04T19:00:27.810Z,102009.38
2023-02-04T19:04:32.023Z,102011.25
2023-02-04T19:08:46.721Z,102019.34
2023-02-04T19:12:52.220Z,102028.88
2023-02-04T19:17:31.590Z,102034.84
2023-02-04T19:21:41.910Z,102037.88
2023-02-04T19:25:51.287Z,102029.19
2023-02-04T19:30:00.212Z,102047.69
2023-02-04T19:34:33.296Z,102037.81
2023-02-04T19:38:46.226Z,102051.25
2023-02-04T19:42:53.328Z,102055.28
2023-02-04T19:46:55.260Z,102057.78
2023-02-04T19:50:57.177Z,102055.28
2023-02-04T19:55:39.166Z,102060.00
2023-02-04T19:59:45.552Z,102048.66
2023-02-04T20:04:03.933Z,102066.72
2023-02-04T20:08:49.115Z,102078.34
2023-02-04T20:13:30.965Z,102072.94
2023-02-04T20:17:51.011Z,102079.22
2023-02-04T20:22:19.615Z,102100.66
2023-02-04T20:26:23.156Z,102111.31
2023-02-04T20:30:30.193Z,102121.72
2023-02-04T20:34:32.304Z,102113.81
2023-02-04T20:38:34.321Z,102129.69
2023-02-04T20:43:08.580Z,102142.75
2023-02-04T20:47:23.964Z,102138.97
2023-02-04T20:51:27.998Z,102126.31
2023-02-04T20:55:32.939Z,102156.63
2023-02-04T20:59:35.181Z,102147.06
2023-02-04T21:03:37.763Z,102157.28
2023-02-04T21:07:46.282Z,102173.75
2023-02-04T21:11:48.412Z,102174.03
2023-02-04T21:15:50.494Z,102168.69
2023-02-04T21:19:52.400Z,102172.00
2023-02-04T21:23:54.263Z,102184.44
2023-02-04T21:27:56.843Z,102178.22
2023-02-04T21:31:58.682Z,102189.41
2023-02-04T21:36:00.466Z,102195.66
2023-02-04T21:40:02.462Z,102183.34
2023-02-04T21:44:04.595Z,102188.72
2023-02-04T21:48:08.081Z,102196.06
2023-02-04T21:52:09.949Z,102189.66
2023-02-04T21:56:11.947Z,102181.44
2023-02-04T22:00:14.259Z,102174.59
2023-02-04T22:04:16.126Z,102175.72
2023-02-04T22:08:18.082Z,102186.44
2023-02-04T22:12:20.181Z,102193.16
2023-02-04T22:16:22.074Z,102195.78
2023-02-04T22:20:26.813Z,102198.13
2023-02-04T22:24:31.690Z,102213.25
2023-02-04T22:28:33.534Z,102206.47
2023-02-04T22:32:35.499Z,102219.47
2023-02-04T22:36:37.377Z,102214.94
2023-02-04T22:40:39.175Z,102207.41
2023-02-04T22:44:41.463Z,102206.56
2023-02-04T22:48:46.005Z,102208.91
2023-02-04T22:52:47.859Z,102204.59
2023-02-04T22:57:02.350Z,102202.97
2023-02-04T23:01:07.040Z,102208.88
2023-02-04T23:05:09.195Z,102203.19
2023-02-04T23:09:11.476Z,102201.66
2023-02-04T23:13:13.369Z,102200.88
2023-02-04T23:17:16.408Z,102202.06
2023-02-04T23:21:20.376Z,102208.28
2023-02-04T23:25:22.641Z,102212.34
2023-02-04T23:29:28.287Z,102216.78
2023-02-04T23:33:30.060Z,102231.50
2023-02-04T23:37:32.396Z,102236.66
2023-02-04T23:41:34.339Z,102229.66
2023-02-04T23:45:36.533Z,102228.88
2023-02-04T23:49:38.509Z,102232.50
2023-02-04T23:53:40.280Z,102225.03
2023-02-04T23:57:42.113Z,102212.25
